Time;durP1;ratioP1;P1;durP2;ratioP2;P2;SDS_P1;SDS_P2;PMS_P1;PMS_P2;Temp;Humidity;BMP_temperature;BMP_pressure;BME280_temperature;BME280_humidity;BME280_pressure;Samples;Min_cycle;Max_cycle;Signal;HPM_P1;HPM_P2
2023/04/23 00:01:42;;;;;;;8.90;6.47;;;;;;;20.20;42.18;100012.97;5074577;28;20049;-68
2023/04/23 00:04:13;;;;;;;11.18;6.60;;;;;;;20.19;42.56;100013.16;5074311;28;20044;-68
2023/04/23 00:06:42;;;;;;;9.65;6.35;;;;;;;20.19;42.49;100005.03;5073664;28;20059;-68
2023/04/23 00:09:14;;;;;;;10.43;6.28;;;;;;;20.18;42.04;100006.03;5074406;28;20409;-68
2023/04/23 00:11:43;;;;;;;8.68;5.90;;;;;;;20.16;42.56;100005.31;5074333;28;20057;-68
2023/04/23 00:14:12;;;;;;;11.15;6.68;;;;;;;20.15;42.15;100006.34;5074142;28;20094;-68
2023/04/23 00:16:40;;;;;;;9.57;5.95;;;;;;;20.14;42.63;100007.34;5074129;28;20048;-68
2023/04/23 00:19:09;;;;;;;10.20;6.30;;;;;;;20.11;42.29;100013.94;5073951;28;20080;-68
2023/04/23 00:21:38;;;;;;;10.25;6.47;;;;;;;20.11;42.28;100007.69;5074014;28;20101;-67
2023/04/23 00:24:07;;;;;;;10.52;6.70;;;;;;;20.11;42.62;100010.38;5074114;28;20052;-68
2023/04/23 00:26:35;;;;;;;9.50;6.22;;;;;;;20.10;42.17;100000.56;5073943;28;20044;-68
2023/04/23 00:29:04;;;;;;;9.60;6.80;;;;;;;20.08;42.30;100002.59;5073795;28;20052;-68
2023/04/23 00:31:32;;;;;;;11.15;6.63;;;;;;;20.06;42.23;100008.13;5073785;28;20421;-67
2023/04/23 00:34:00;;;;;;;9.98;6.40;;;;;;;20.06;42.68;100001.88;5073596;28;20127;-68
2023/04/23 00:36:28;;;;;;;11.70;6.80;;;;;;;20.04;42.68;100003.91;5073723;28;20049;-68
2023/04/23 00:38:58;;;;;;;11.93;6.43;;;;;;;20.03;42.49;100000.34;5073714;28;20048;-68
2023/04/23 00:41:27;;;;;;;9.65;6.40;;;;;;;20.01;42.62;100003.22;5073620;28;20090;-69
2023/04/23 00:43:57;;;;;;;9.95;6.63;;;;;;;20.01;42.78;100000.50;5073438;28;20044;-69
2023/04/23 00:46:25;;;;;;;8.85;6.50;;;;;;;19.99;42.86;99998.97;5073109;28;20057;-69
2023/04/23 00:48:54;;;;;;;11.15;6.93;;;;;;;19.98;42.86;100003.53;5073321;28;20501;-69
2023/04/23 00:51:23;;;;;;;9.23;6.75;;;;;;;19.96;42.90;100005.53;5073686;28;20049;-68
2023/04/23 00:53:51;;;;;;;10.45;6.78;;;;;;;19.95;42.88;100006.53;5073497;28;20102;-67
2023/04/23 00:56:22;;;;;;;10.55;6.72;;;;;;;19.94;42.74;100002.16;5073378;28;20197;-68
2023/04/23 00:58:51;;;;;;;11.40;6.85;;;;;;;19.92;42.54;99998.75;5073126;28;20056;-67
2023/04/23 01:01:20;;;;;;;10.27;6.72;;;;;;;19.93;43.12;99996.88;5073056;28;20071;-67
2023/04/23 01:03:51;;;;;;;11.77;7.72;;;;;;;19.91;42.88;99999.75;5073278;28;20508;-68
2023/04/23 01:06:20;;;;;;;10.43;6.57;;;;;;;19.90;42.77;99998.06;5073176;28;20068;-67
2023/04/23 01:08:48;;;;;;;10.27;6.85;;;;;;;19.89;42.80;99999.09;5072959;28;20054;-67
2023/04/23 01:11:16;;;;;;;9.73;6.50;;;;;;;19.89;43.11;99998.22;5072877;28;20052;-68
2023/04/23 01:13:46;;;;;;;9.10;6.47;;;;;;;19.87;42.83;99998.38;5072684;28;20520;-68
2023/04/23 01:16:14;;;;;;;10.95;6.93;;;;;;;19.86;43.36;99993.97;5072946;28;20052;-67
2023/04/23 01:18:43;;;;;;;8.35;6.35;;;;;;;19.86;43.36;99993.97;5072196;28;20052;-67
2023/04/23 01:21:12;;;;;;;11.00;6.78;;;;;;;19.84;43.37;99990.56;5072774;28;20083;-67
2023/04/23 01:23:41;;;;;;;10.52;6.50;;;;;;;19.82;43.33;99992.59;5072835;28;20098;-68
2023/04/23 01:26:10;;;;;;;10.18;6.82;;;;;;;19.82;43.15;100007.97;5072663;28;20135;-68
2023/04/23 01:28:39;;;;;;;9.45;6.53;;;;;;;19.81;43.10;99996.31;5072800;28;20045;-69
2023/04/23 01:31:07;;;;;;;9.80;6.80;;;;;;;19.79;43.07;99995.63;5072676;28;20500;-69
2023/04/23 01:33:36;;;;;;;8.68;6.35;;;;;;;19.79;43.37;99997.47;5072779;28;20909;-67
2023/04/23 01:36:04;;;;;;;10.05;6.68;;;;;;;19.77;43.50;99988.66;5072523;28;20068;-69
2023/04/23 01:38:34;;;;;;;9.55;6.38;;;;;;;19.75;43.21;99999.63;5072473;28;20084;-69
2023/04/23 01:41:04;;;;;;;11.07;6.25;;;;;;;19.75;43.45;99996.06;5072625;28;20463;-68
2023/04/23 01:43:32;;;;;;;10.15;6.53;;;;;;;19.73;43.42;99988.13;5072561;28;20460;-68
2023/04/23 01:46:00;;;;;;;8.90;6.40;;;;;;;19.73;43.27;99996.25;5072331;28;20079;-69
2023/04/23 01:48:29;;;;;;;9.88;6.40;;;;;;;19.72;43.62;99991.84;5072554;28;20056;-68
2023/04/23 01:50:57;;;;;;;9.98;6.53;;;;;;;19.70;43.74;99994.72;5072257;28;20417;-68
2023/04/23 01:53:26;;;;;;;9.30;6.40;;;;;;;19.69;43.32;99994.88;5072031;28;20070;-68
2023/04/23 01:55:55;;;;;;;8.95;6.50;;;;;;;19.68;43.54;99993.13;5072128;28;20044;-69
2023/04/23 01:58:25;;;;;;;8.15;6.55;;;;;;;19.68;43.72;99990.44;5072281;28;20061;-69
2023/04/23 02:00:53;;;;;;;8.85;6.47;;;;;;;19.66;43.53;99987.88;5072064;28;20045;-69
2023/04/23 02:03:22;;;;;;;9.07;6.65;;;;;;;19.65;43.65;99990.75;5072097;28;20048;-68
2023/04/23 02:05:53;;;;;;;11.13;6.70;;;;;;;19.64;43.75;99989.91;5071915;28;20143;-69
2023/04/23 02:08:22;;;;;;;11.07;6.43;;;;;;;19.63;43.40;99982.81;5071961;28;20582;-69
2023/04/23 02:10:50;;;;;;;10.27;6.78;;;;;;;19.63;43.41;99979.25;5072068;28;20056;-68
2023/04/23 02:13:18;;;;;;;9.48;6.57;;;;;;;19.60;43.45;99976.88;5072012;28;20045;-69
2023/04/23 02:15:48;;;;;;;9.27;6.40;;;;;;;19.60;44.03;99976.88;5072059;28;20067;-68
2023/04/23 02:18:16;;;;;;;10.95;6.97;;;;;;;19.58;43.65;99985.13;5071887;28;20052;-68
2023/04/23 02:20:44;;;;;;;8.85;6.43;;;;;;;19.58;43.77;99981.56;5071781;28;20067;-68
2023/04/23 02:23:12;;;;;;;9.85;6.57;;;;;;;19.56;43.57;99981.72;5071991;28;20053;-69
2023/04/23 02:25:42;;;;;;;9.45;6.20;;;;;;;19.56;43.66;99978.16;5072082;28;20127;-68
2023/04/23 02:28:12;;;;;;;12.32;6.97;;;;;;;19.54;43.70;99978.28;5071778;28;20512;-68
2023/04/23 02:30:44;;;;;;;8.90;6.05;;;;;;;19.54;44.05;99980.16;5071513;28;20054;-69
2023/04/23 02:33:13;;;;;;;8.73;6.35;;;;;;;19.53;44.00;99976.59;5071601;28;20048;-69
2023/04/23 02:35:41;;;;;;;9.75;6.75;;;;;;;19.52;43.79;99979.47;5072068;28;20052;-68
2023/04/23 02:38:10;;;;;;;10.30;6.32;;;;;;;19.52;44.09;99974.06;5071909;28;20048;-68
2023/04/23 02:40:38;;;;;;;9.02;6.47;;;;;;;19.50;43.84;99967.97;5071741;28;20074;-69
2023/04/23 02:43:06;;;;;;;10.77;7.07;;;;;;;19.49;43.83;99968.94;5071785;28;20045;-68
2023/04/23 02:45:35;;;;;;;10.80;6.63;;;;;;;19.47;43.91;99968.25;5071301;28;20075;-69
2023/04/23 02:48:03;;;;;;;11.45;7.00;;;;;;;19.47;44.13;99976.38;5071820;28;20052;-69
2023/04/23 02:50:33;;;;;;;10.10;6.60;;;;;;;19.45;43.88;99971.97;5071592;28;20565;-69
2023/04/23 02:53:02;;;;;;;9.20;7.00;;;;;;;19.44;43.85;99972.13;5071630;28;20090;-68
2023/04/23 02:55:30;;;;;;;10.02;6.65;;;;;;;19.43;44.26;99970.44;5071553;28;20447;-70
2023/04/23 02:57:59;;;;;;;9.27;6.05;;;;;;;19.42;43.82;99963.31;5071666;28;20071;-69
2023/04/23 03:00:28;;;;;;;9.75;6.68;;;;;;;19.41;44.12;99961.63;5071334;28;20076;-69
2023/04/23 03:02:56;;;;;;;10.68;7.38;;;;;;;19.40;43.99;99965.34;5071283;28;20042;-69
2023/04/23 03:05:24;;;;;;;8.98;6.78;;;;;;;19.38;44.05;99964.63;5071462;28;20090;-68
2023/04/23 03:07:54;;;;;;;8.90;6.57;;;;;;;19.38;44.31;99961.91;5071401;28;20048;-69
2023/04/23 03:10:22;;;;;;;10.00;6.93;;;;;;;19.37;44.14;99960.22;5071360;28;20067;-68
2023/04/23 03:12:50;;;;;;;9.05;6.60;;;;;;;19.36;44.05;99964.78;5071125;28;20064;-68
2023/04/23 03:15:19;;;;;;;10.40;6.95;;;;;;;19.34;44.30;99964.09;5071333;28;20079;-69
2023/04/23 03:17:48;;;;;;;9.45;6.32;;;;;;;19.34;44.02;99963.25;5071386;28;20091;-69
2023/04/23 03:20:16;;;;;;;11.18;6.88;;;;;;;19.32;44.25;99959.84;5071176;28;20045;-69
2023/04/23 03:22:44;;;;;;;10.23;6.72;;;;;;;19.31;44.16;99961.72;5071533;28;20044;-68
2023/04/23 03:25:14;;;;;;;10.52;6.78;;;;;;;19.30;44.25;99954.59;5071312;28;20087;-69
2023/04/23 03:27:43;;;;;;;9.52;6.38;;;;;;;19.30;44.46;99960.03;5071230;28;20486;-69
2023/04/23 03:30:12;;;;;;;8.90;6.38;;;;;;;19.30;44.05;99959.13;5071308;28;20051;-68
2023/04/23 03:32:40;;;;;;;9.00;6.65;;;;;;;19.28;44.44;99956.59;5071276;28;20048;-68
2023/04/23 03:35:09;;;;;;;9.88;6.10;;;;;;;19.27;44.20;99965.72;5071199;28;20080;-68
2023/04/23 03:37:40;;;;;;;8.98;6.63;;;;;;;19.26;44.29;99965.88;5071226;28;20044;-68
2023/04/23 03:40:09;;;;;;;9.77;6.38;;;;;;;19.24;43.89;99971.44;5071158;28;20051;-68
2023/04/23 03:42:39;;;;;;;9.45;6.75;;;;;;;19.23;44.22;99960.78;5074095;28;20071;-68
2023/04/23 03:45:09;;;;;;;10.57;6.53;;;;;;;19.23;44.23;99968.91;5074731;28;20053;-68
2023/04/23 03:47:37;;;;;;;8.95;6.55;;;;;;;19.22;44.61;99968.06;5074818;28;20086;-68
2023/04/23 03:50:06;;;;;;;10.25;6.35;;;;;;;19.21;44.21;99966.34;5074696;28;20044;-67
2023/04/23 03:52:35;;;;;;;9.20;6.45;;;;;;;19.19;44.23;99972.91;5074544;28;20051;-68
2023/04/23 03:55:03;;;;;;;8.32;6.07;;;;;;;19.18;44.21;99972.03;5074731;28;20040;-68
2023/04/23 03:57:31;;;;;;;10.02;6.53;;;;;;;19.18;44.50;99977.44;5074610;28;20140;-68
2023/04/23 04:00:01;;;;;;;10.05;6.40;;;;;;;19.16;44.33;99977.63;5074597;28;20131;-68
2023/04/23 04:02:29;;;;;;;10.48;6.55;;;;;;;19.16;44.31;99979.47;5074486;28;20041;-69
2023/04/23 04:04:57;;;;;;;9.15;6.22;;;;;;;19.15;44.68;99984.03;5074199;28;20405;-67
2023/04/23 04:07:27;;;;;;;10.68;6.90;;;;;;;19.15;44.43;99983.19;5074549;28;20048;-69
2023/04/23 04:09:55;;;;;;;9.30;6.38;;;;;;;19.13;44.21;99986.03;5074418;28;20044;-68
2023/04/23 04:12:23;;;;;;;10.07;7.07;;;;;;;19.12;44.48;99984.34;5074034;28;20053;-69
2023/04/23 04:14:51;;;;;;;9.55;6.53;;;;;;;19.12;44.27;99981.63;5074221;28;20090;-69
2023/04/23 04:17:20;;;;;;;8.80;6.47;;;;;;;19.11;44.58;99987.22;5074224;28;20098;-67
2023/04/23 04:19:49;;;;;;;10.25;6.85;;;;;;;19.09;44.66;99986.47;5073955;28;20080;-68
2023/04/23 04:22:17;;;;;;;8.85;6.03;;;;;;;19.09;44.57;99986.47;5073885;28;20040;-67
2023/04/23 04:24:46;;;;;;;9.48;6.88;;;;;;;19.09;44.57;100000.00;5074127;28;20048;-67
2023/04/23 04:27:14;;;;;;;9.50;6.88;;;;;;;19.08;44.38;100003.72;5073972;28;20051;-67
2023/04/23 04:29:43;;;;;;;9.00;6.38;;;;;;;19.08;44.04;100001.00;5073858;28;20486;-67
2023/04/23 04:32:12;;;;;;;10.15;6.18;;;;;;;19.06;44.63;99994.91;5073554;28;20139;-68
2023/04/23 04:34:42;;;;;;;11.20;6.95;;;;;;;19.06;44.50;99994.91;5074064;28;20048;-68
2023/04/23 04:37:11;;;;;;;12.68;6.43;;;;;;;19.05;44.56;99999.47;5073908;28;20091;-68
2023/04/23 04:39:40;;;;;;;10.02;6.82;;;;;;;19.04;44.72;99991.50;5073888;28;20083;-68
2023/04/23 04:42:08;;;;;;;9.48;6.28;;;;;;;19.03;44.73;99992.53;5073621;28;20055;-68
2023/04/23 04:44:37;;;;;;;8.60;6.15;;;;;;;19.03;44.54;100003.34;5073247;28;20449;-68
2023/04/23 04:47:06;;;;;;;9.95;6.88;;;;;;;19.02;44.54;99998.94;5062228;28;20045;-68
2023/04/23 04:49:35;;;;;;;9.90;7.15;;;;;;;19.02;44.56;100009.75;5053328;28;20532;-68
2023/04/23 04:52:04;;;;;;;9.52;6.13;;;;;;;19.01;44.48;100008.00;5053412;28;20049;-68
2023/04/23 04:54:32;;;;;;;9.98;6.38;;;;;;;19.01;44.54;100002.63;5069644;28;20075;-68
2023/04/23 04:57:01;;;;;;;8.65;6.65;;;;;;;18.99;44.43;100007.31;5073578;28;20489;-68
2023/04/23 04:59:29;;;;;;;9.15;6.40;;;;;;;18.99;44.66;100010.03;5073156;28;20120;-69
2023/04/23 05:01:58;;;;;;;9.75;6.20;;;;;;;18.99;44.46;100010.03;5073424;28;20040;-68
2023/04/23 05:04:26;;;;;;;9.75;6.35;;;;;;;18.99;44.15;100010.03;5054101;28;20053;-68
2023/04/23 05:06:55;;;;;;;9.20;6.85;;;;;;;18.99;44.45;100010.03;5053010;28;20506;-68
2023/04/23 05:09:25;;;;;;;9.32;6.68;;;;;;;18.99;44.50;100015.44;5052992;28;20072;-68
2023/04/23 05:11:53;;;;;;;8.73;6.53;;;;;;;18.99;44.74;100012.72;5052549;28;20045;-68
2023/04/23 05:14:21;;;;;;;8.50;6.43;;;;;;;18.99;44.81;100010.03;5053022;28;20052;-68
2023/04/23 05:16:50;;;;;;;8.40;6.10;;;;;;;18.97;44.60;100018.28;5052980;28;20103;-68
2023/04/23 05:19:18;;;;;;;9.00;6.32;;;;;;;18.99;44.94;100018.13;5052990;28;20130;-68
2023/04/23 05:21:46;;;;;;;8.95;6.50;;;;;;;18.98;44.74;100013.72;5059657;28;20049;-67
2023/04/23 05:24:14;;;;;;;9.55;6.22;;;;;;;18.98;45.15;100013.72;5072813;28;20136;-68
2023/04/23 05:26:44;;;;;;;9.23;5.88;;;;;;;18.98;44.98;100025.41;5072683;28;20052;-68
2023/04/23 05:29:16;;;;;;;8.32;6.15;;;;;;;18.97;45.49;100017.44;5072558;28;20500;-67
2023/04/23 05:31:46;;;;;;;9.82;6.35;;;;;;;18.97;45.58;100018.28;5072787;28;20056;-67
2023/04/23 05:34:14;;;;;;;9.40;6.30;;;;;;;18.99;45.71;100020.84;5072559;28;20524;-68
2023/04/23 05:36:42;;;;;;;9.18;6.30;;;;;;;18.99;45.62;100026.25;5072468;28;20044;-68
2023/04/23 05:39:13;;;;;;;8.55;5.88;;;;;;;18.99;45.54;100015.44;5072385;28;20083;-68
2023/04/23 05:41:42;;;;;;;10.40;6.47;;;;;;;18.99;45.66;100013.56;5072334;28;20485;-68
2023/04/23 05:44:11;;;;;;;7.93;5.80;;;;;;;18.98;45.54;100011.88;5072501;28;20049;-68
2023/04/23 05:46:42;;;;;;;7.72;5.57;;;;;;;18.99;46.17;100016.28;5072105;28;20053;-68
2023/04/23 05:49:10;;;;;;;8.75;6.20;;;;;;;18.99;45.81;100010.03;5072398;28;20543;-67
2023/04/23 05:51:39;;;;;;;8.82;6.35;;;;;;;18.99;45.59;100021.69;5071982;28;20094;-67
2023/04/23 05:54:07;;;;;;;8.27;6.00;;;;;;;19.00;45.55;100014.44;5072311;28;20044;-68
2023/04/23 05:56:35;;;;;;;8.43;5.78;;;;;;;19.00;45.25;100022.53;5072234;28;20048;-67
2023/04/23 05:59:03;;;;;;;7.35;5.72;;;;;;;19.00;45.32;100019.84;5072446;28;20458;-67
2023/04/23 06:01:33;;;;;;;9.75;6.60;;;;;;;19.00;46.26;100022.53;5072108;28;20086;-67
2023/04/23 06:04:01;;;;;;;8.80;6.18;;;;;;;19.00;45.69;100022.53;5071649;28;20489;-68
2023/04/23 06:06:30;;;;;;;9.02;6.35;;;;;;;19.01;45.53;100024.22;5071835;28;20072;-68
2023/04/23 06:08:58;;;;;;;9.85;6.05;;;;;;;19.02;45.59;100032.22;5072167;28;20040;-68
2023/04/23 06:11:27;;;;;;;8.45;6.25;;;;;;;19.01;45.90;100024.22;5072034;28;20048;-68
2023/04/23 06:13:55;;;;;;;9.07;6.50;;;;;;;19.02;45.61;100025.97;5071953;28;20044;-68
2023/04/23 06:16:23;;;;;;;10.10;6.45;;;;;;;19.02;46.09;100032.22;5071952;28;20135;-66
2023/04/23 06:18:55;;;;;;;9.73;6.47;;;;;;;19.03;46.07;100023.09;5073390;28;20048;-68
2023/04/23 06:21:23;;;;;;;9.88;6.13;;;;;;;19.03;45.88;100024.97;5072358;28;20044;-69
2023/04/23 06:23:51;;;;;;;8.45;6.18;;;;;;;19.04;45.79;100023.94;5071710;28;20055;-69
2023/04/23 06:26:19;;;;;;;9.45;5.88;;;;;;;19.03;45.52;100027.66;5071797;28;20041;-67
2023/04/23 06:28:48;;;;;;;7.97;6.03;;;;;;;19.04;45.73;100030.22;5071959;28;20464;-67
2023/04/23 06:31:19;;;;;;;10.88;6.30;;;;;;;19.05;45.74;100036.47;5071575;28;20492;-68
2023/04/23 06:33:47;;;;;;;8.25;5.55;;;;;;;19.05;45.54;100036.47;5071643;28;20100;-68
2023/04/23 06:36:16;;;;;;;10.43;6.22;;;;;;;19.06;45.96;100038.16;5071523;28;20044;-68
2023/04/23 06:38:45;;;;;;;9.10;6.28;;;;;;;19.07;45.75;100034.44;5071604;28;20045;-68
2023/04/23 06:41:14;;;;;;;8.25;5.85;;;;;;;19.07;45.70;100035.31;5071687;28;20048;-68
2023/04/23 06:43:44;;;;;;;8.82;5.93;;;;;;;19.08;45.86;100031.59;5071478;28;20110;-68
2023/04/23 06:46:12;;;;;;;9.45;6.15;;;;;;;19.08;45.91;100026.19;5071521;28;20048;-70
2023/04/23 06:48:41;;;;;;;9.20;6.10;;;;;;;19.09;46.07;100037.84;5071853;28;20040;-68
2023/04/23 06:51:09;;;;;;;9.45;6.05;;;;;;;19.10;45.85;100039.53;5071842;28;20040;-68
2023/04/23 06:53:38;;;;;;;8.48;5.85;;;;;;;19.10;46.11;100034.97;5071354;28;20395;-68
2023/04/23 06:56:10;;;;;;;9.18;5.80;;;;;;;19.13;46.52;100028.44;5071355;28;20076;-67
2023/04/23 06:58:39;;;;;;;10.77;6.05;;;;;;;19.14;46.75;100035.56;5071126;28;20052;-67
2023/04/23 07:01:09;;;;;;;12.02;5.88;;;;;;;19.14;47.06;100031.00;5071676;28;20053;-68
2023/04/23 07:03:37;;;;;;;10.50;5.93;;;;;;;19.15;46.77;100021.88;5071346;28;20139;-69
2023/04/23 07:06:05;;;;;;;10.50;6.32;;;;;;;19.16;47.20;100022.72;5065019;28;20056;-68
2023/04/23 07:08:34;;;;;;;10.98;6.35;;;;;;;19.17;47.40;100027.97;5054282;28;20103;-67
2023/04/23 07:11:04;;;;;;;10.45;5.88;;;;;;;19.19;47.19;100027.81;5051435;28;20052;-67
2023/04/23 07:13:32;;;;;;;11.82;6.22;;;;;;;19.19;47.43;100022.41;5051782;28;20102;-68
2023/04/23 07:16:01;;;;;;;10.40;6.40;;;;;;;19.21;47.20;100025.00;5052179;28;20045;-68
2023/04/23 07:18:29;;;;;;;8.75;6.20;;;;;;;19.21;47.76;100025.00;5056064;28;20045;-68
2023/04/23 07:20:57;;;;;;;12.30;6.22;;;;;;;19.21;47.50;100028.53;5055399;28;20052;-67
2023/04/23 07:23:25;;;;;;;12.73;6.28;;;;;;;19.22;47.68;100022.13;5057956;28;20053;-67
2023/04/23 07:25:53;;;;;;;9.38;6.15;;;;;;;19.23;47.38;100023.81;5057139;28;20071;-68
2023/04/23 07:28:23;;;;;;;10.43;6.25;;;;;;;19.24;47.49;100024.66;5056193;28;20041;-67
2023/04/23 07:30:51;;;;;;;11.65;6.38;;;;;;;19.24;47.38;100020.13;5055580;28;20045;-68
2023/04/23 07:33:20;;;;;;;11.82;5.90;;;;;;;19.24;47.38;100020.13;5055658;28;20450;-68
2023/04/23 07:35:48;;;;;;;10.88;5.97;;;;;;;19.26;47.82;100017.25;5055758;28;20049;-69
2023/04/23 07:38:16;;;;;;;9.55;5.75;;;;;;;19.27;47.48;100017.09;5056337;28;20080;-68
2023/04/23 07:40:44;;;;;;;12.63;6.28;;;;;;;19.27;47.87;100017.09;5056424;28;20047;-68
2023/04/23 07:43:12;;;;;;;10.07;6.03;;;;;;;19.28;47.96;100018.78;5057533;28;20071;-69
2023/04/23 07:45:42;;;;;;;11.75;5.57;;;;;;;19.29;47.85;100017.78;5055789;28;20387;-68
2023/04/23 07:48:10;;;;;;;9.45;5.60;;;;;;;19.30;47.45;100018.63;5055234;28;20247;-69
2023/04/23 07:50:41;;;;;;;10.70;6.50;;;;;;;19.30;47.35;100008.69;5069574;28;20040;-69
2023/04/23 07:53:09;;;;;;;17.10;6.05;;;;;;;19.31;47.46;100004.97;5074996;28;20062;-64
2023/04/23 07:55:37;;;;;;;9.38;5.75;;;;;;;19.32;47.70;100014.78;5074616;28;20056;-66
2023/04/23 07:58:05;;;;;;;17.80;7.03;;;;;;;19.33;47.49;100011.06;5074730;28;20132;-67
2023/04/23 08:00:34;;;;;;;13.18;6.88;;;;;;;19.34;47.16;100010.06;5074694;28;20077;-67
2023/04/23 08:03:03;;;;;;;14.75;6.95;;;;;;;19.35;47.41;100017.19;5074543;28;20135;-66
2023/04/23 08:05:32;;;;;;;12.57;6.65;;;;;;;19.36;47.12;100016.16;5074870;28;20448;-66
2023/04/23 08:08:00;;;;;;;15.93;7.30;;;;;;;19.37;47.26;100009.75;5074214;28;20531;-66
2023/04/23 08:10:28;;;;;;;18.77;7.68;;;;;;;19.38;47.34;100008.75;5074460;28;20045;-66
2023/04/23 08:12:57;;;;;;;20.25;7.80;;;;;;;19.40;46.97;100011.31;5074591;28;20127;-67
2023/04/23 08:15:25;;;;;;;20.35;8.13;;;;;;;19.39;46.94;100007.72;5074569;28;20425;-67
2023/04/23 08:17:53;;;;;;;28.58;9.23;;;;;;;19.42;46.94;100009.31;5074344;28;20059;-67
2023/04/23 08:20:23;;;;;;;27.13;8.85;;;;;;;19.43;46.92;100011.00;5074383;28;20044;-67
2023/04/23 08:22:52;;;;;;;28.67;10.32;;;;;;;19.43;47.27;100005.59;5074049;28;20482;-67
2023/04/23 08:25:21;;;;;;;26.95;9.70;;;;;;;19.45;47.11;99998.16;5074515;28;20055;-67
2023/04/23 08:27:49;;;;;;;30.30;9.65;;;;;;;19.45;47.29;100007.13;5073980;28;20059;-67
2023/04/23 08:30:18;;;;;;;30.35;10.38;;;;;;;19.47;47.71;100008.81;5074169;28;20143;-67
2023/04/23 08:32:49;;;;;;;31.25;10.57;;;;;;;19.49;47.53;100002.25;5073869;28;20053;-67
2023/04/23 08:35:18;;;;;;;34.38;10.85;;;;;;;19.49;47.59;100002.25;5073845;28;20063;-67
2023/04/23 08:37:47;;;;;;;35.17;10.90;;;;;;;19.51;47.39;99999.41;5073967;28;20456;-67
2023/04/23 08:40:16;;;;;;;33.17;10.13;;;;;;;19.53;47.62;99986.56;5073886;28;20055;-67
2023/04/23 08:42:49;;;;;;;29.92;10.32;;;;;;;19.53;47.68;99991.97;5073798;28;20048;-67
2023/04/23 08:45:18;;;;;;;35.33;11.10;;;;;;;19.55;47.56;99989.97;5073280;28;20052;-67
2023/04/23 08:47:46;;;;;;;32.30;9.75;;;;;;;19.56;47.99;99981.72;5073710;28;20140;-68
2023/04/23 08:50:16;;;;;;;33.67;10.18;;;;;;;19.57;47.71;99982.56;5073463;28;20493;-67
2023/04/23 08:52:49;;;;;;;31.75;9.95;;;;;;;19.58;48.19;99981.56;5073448;28;20048;-67
2023/04/23 08:55:18;;;;;;;;;;;;;;;19.59;48.06;99980.56;5073782;28;20058;-67
2023/04/23 08:57:48;;;;;;;29.67;9.50;;;;;;;19.61;47.98;99979.41;5073117;28;19924;-67
2023/04/23 09:00:19;;;;;;;30.67;10.60;;;;;;;19.63;47.72;99971.13;5073500;28;20410;-67
2023/04/23 09:02:49;;;;;;;23.85;9.77;;;;;;;19.64;48.12;99973.69;5073286;28;20500;-68
2023/04/23 09:05:18;;;;;;;27.55;10.07;;;;;;;19.65;48.01;99980.78;5073153;28;20548;-67
2023/04/23 09:07:48;;;;;;;31.55;9.85;;;;;;;19.67;48.23;99975.22;5073270;28;20049;-68
2023/04/23 09:10:16;;;;;;;28.60;9.18;;;;;;;19.69;48.21;99971.38;5073004;28;20049;-66
2023/04/23 09:12:46;;;;;;;28.38;10.35;;;;;;;19.70;48.21;99966.81;5073254;28;20040;-67
2023/04/23 09:15:15;;;;;;;30.85;10.68;;;;;;;19.71;48.39;99974.75;5073140;28;20052;-68
2023/04/23 09:17:45;;;;;;;23.35;9.55;;;;;;;19.74;47.91;99965.47;5073199;28;20048;-68
2023/04/23 09:20:14;;;;;;;20.50;9.00;;;;;;;19.75;48.05;99958.19;5072855;28;20123;-67
2023/04/23 09:22:45;;;;;;;23.27;9.85;;;;;;;19.77;47.94;99956.16;5072602;28;20056;-67
2023/04/23 09:25:18;;;;;;;26.90;9.80;;;;;;;19.78;48.08;99953.31;5072549;28;20080;-67
2023/04/23 09:27:47;;;;;;;22.27;9.48;;;;;;;19.81;48.33;99957.56;5072867;28;20045;-67
2023/04/23 09:30:16;;;;;;;23.48;9.02;;;;;;;19.83;48.33;99961.81;5072690;28;20139;-67
2023/04/23 09:32:45;;;;;;;23.63;9.13;;;;;;;19.86;48.39;99963.34;5072466;28;20509;-68
2023/04/23 09:35:18;;;;;;;24.45;9.10;;;;;;;19.87;48.37;99960.47;5072010;28;20049;-68
2023/04/23 09:37:48;;;;;;;24.63;9.57;;;;;;;19.89;48.31;99954.94;5072766;28;20044;-67
2023/04/23 09:40:20;;;;;;;21.40;9.32;;;;;;;19.91;48.44;99948.34;5071710;28;20079;-67
2023/04/23 09:42:49;;;;;;;25.10;9.55;;;;;;;19.92;48.30;99947.31;5072619;28;20082;-67
2023/04/23 09:45:18;;;;;;;24.75;8.55;;;;;;;19.95;47.90;99949.69;5072367;28;20413;-67
2023/04/23 09:47:51;;;;;;;22.63;9.20;;;;;;;19.96;48.08;99948.69;5072288;28;20037;-67
2023/04/23 09:50:20;;;;;;;19.52;8.57;;;;;;;19.98;47.91;99949.41;5066434;28;20041;-67
2023/04/23 09:52:55;;;;;;;21.45;8.57;;;;;;;20.01;48.01;99942.81;5071207;28;20102;-63
2023/04/23 09:55:37;;;;;;;25.05;8.85;;;;;;;20.02;47.74;99936.38;5070942;28;20246;-67
2023/04/23 09:58:07;;;;;;;22.85;8.63;;;;;;;20.06;47.82;99942.31;5071683;28;20044;-68
2023/04/23 10:00:36;;;;;;;19.42;8.38;;;;;;;20.08;47.39;99938.47;5071778;28;20044;-67
2023/04/23 10:03:07;;;;;;;21.05;8.25;;;;;;;20.11;47.45;99940.00;5071920;28;20090;-64
2023/04/23 10:05:39;;;;;;;21.02;7.80;;;;;;;20.15;47.28;99935.94;5071448;28;20080;-66
2023/04/23 10:08:27;;;;;;;23.20;7.93;;;;;;;20.17;47.42;99925.78;5071594;28;20056;-65
2023/04/23 10:10:57;;;;;;;17.30;7.28;;;;;;;20.19;47.08;99921.94;5070565;28;20445;-66
2023/04/23 10:13:46;;;;;;;19.00;7.15;;;;;;;20.22;47.03;99924.31;5071119;28;20044;-67
2023/04/23 10:16:14;;;;;;;18.40;7.72;;;;;;;20.25;46.46;99912.28;5071324;28;20106;-67
2023/04/23 10:18:54;;;;;;;16.33;7.68;;;;;;;20.28;46.38;99920.09;5071564;28;20737;-66
2023/04/23 10:21:30;;;;;;;24.30;9.90;;;;;;;20.31;46.58;99917.06;5071355;28;20500;-65
2023/04/23 10:24:19;;;;;;;17.58;8.25;;;;;;;20.37;47.42;99915.56;5071250;28;20074;-65
2023/04/23 10:26:51;;;;;;;25.08;9.07;;;;;;;20.40;47.56;99913.38;5071338;28;20049;-65
2023/04/23 10:29:23;;;;;;;23.67;9.25;;;;;;;20.45;47.12;99919.16;5071143;28;20080;-62
2023/04/23 10:31:52;;;;;;;19.15;8.10;;;;;;;20.51;47.58;99906.84;5071264;28;20197;-69
2023/04/23 10:34:20;;;;;;;19.98;8.02;;;;;;;20.55;47.66;99905.50;5070306;28;20047;-71
2023/04/23 10:36:50;;;;;;;19.17;7.78;;;;;;;20.58;47.85;99897.91;5070413;28;20066;-65
2023/04/23 10:39:20;;;;;;;18.02;7.93;;;;;;;20.66;47.86;99893.53;5071270;28;20051;-65
2023/04/23 10:41:59;;;;;;;15.95;7.18;;;;;;;20.72;47.94;99900.97;5071156;28;20055;-63
2023/04/23 10:44:36;;;;;;;20.45;8.02;;;;;;;20.72;47.78;99903.69;5062200;28;20052;-68
2023/04/23 10:47:07;;;;;;;16.13;7.50;;;;;;;20.76;48.35;99903.19;5056325;28;20127;-67
2023/04/23 10:49:35;;;;;;;20.08;7.45;;;;;;;20.85;47.95;99893.22;5070927;28;20135;-67
2023/04/23 10:52:08;;;;;;;15.32;7.15;;;;;;;20.90;48.03;99890.84;5075498;28;20048;-68
2023/04/23 10:54:49;;;;;;;16.35;6.88;;;;;;;20.95;47.82;99877.66;5074295;28;20063;-68
2023/04/23 10:57:19;;;;;;;14.75;6.95;;;;;;;21.01;47.83;99870.69;5075410;28;20098;-69
2023/04/23 10:59:53;;;;;;;12.75;6.28;;;;;;;21.04;47.55;99871.22;5075358;28;20051;-66
2023/04/23 11:02:24;;;;;;;12.80;6.03;;;;;;;21.08;47.17;99877.97;5076414;28;20055;-65
2023/04/23 11:04:55;;;;;;;12.75;6.78;;;;;;;21.15;47.01;99880.88;5075604;28;20048;-63
2023/04/23 11:07:29;;;;;;;11.75;6.03;;;;;;;21.18;46.81;99882.41;5075684;28;20207;-64
2023/04/23 11:09:59;;;;;;;9.40;5.57;;;;;;;21.21;46.53;99880.19;5075330;28;20080;-64
2023/04/23 11:12:33;;;;;;;11.77;5.75;;;;;;;21.27;46.38;99881.41;5075155;28;20044;-64
2023/04/23 11:15:11;;;;;;;12.68;7.78;;;;;;;21.30;46.42;99876.47;5074573;28;20105;-67
2023/04/23 11:18:01;;;;;;;22.15;14.02;;;;;;;21.37;47.04;99871.22;5074732;28;20485;-66
2023/04/23 11:20:29;;;;;;;20.55;12.40;;;;;;;21.42;47.37;99868.84;5074599;28;20466;-65
2023/04/23 11:22:58;;;;;;;16.90;11.20;;;;;;;21.48;47.12;99873.59;5074420;28;20140;-66
2023/04/23 11:25:27;;;;;;;17.65;10.10;;;;;;;21.54;46.91;99872.06;5074233;28;20490;-66
2023/04/23 11:27:59;;;;;;;16.35;10.00;;;;;;;21.59;46.68;99875.09;5074165;28;20091;-66
2023/04/23 11:30:29;;;;;;;17.20;10.30;;;;;;;21.61;46.04;99873.06;5074208;28;20049;-67
2023/04/23 11:32:58;;;;;;;15.45;9.80;;;;;;;21.63;46.08;99865.63;5074754;28;20561;-68
2023/04/23 11:35:38;;;;;;;15.27;9.82;;;;;;;21.65;45.55;99861.69;5074531;28;20398;-70